TimeEST,TemperatureF,Dew PointF,Humidity,Sea Level PressureIn,VisibilityMPH,Wind Direction,Wind SpeedMPH,Gust SpeedMPH,PrecipitationIn,Events,Conditions,WindDirDegrees,DateUTC
12:53 AM,17.1,12.9,84,30.06,7.0,South,3.5,-,N/A,,Clear,190,2013-12-11 05:53:00
1:53 AM,19.9,16.0,85,30.09,10.0,South,4.6,-,N/A,,Clear,170,2013-12-11 06:53:00
2:53 AM,19.0,15.1,85,30.11,10.0,South,5.8,-,N/A,,Clear,170,2013-12-11 07:53:00
3:53 AM,18.0,14.0,84,30.14,10.0,SSW,8.1,-,N/A,,Clear,200,2013-12-11 08:53:00
4:53 AM,18.0,12.9,81,30.16,10.0,SSW,9.2,-,N/A,,Clear,210,2013-12-11 09:53:00
5:53 AM,18.0,12.9,81,30.18,10.0,South,5.8,-,N/A,,Clear,190,2013-12-11 10:53:00
6:53 AM,19.0,14.0,81,30.22,10.0,South,8.1,-,N/A,,Clear,190,2013-12-11 11:53:00
7:53 AM,19.0,14.0,81,30.24,10.0,South,5.8,-,N/A,,Clear,170,2013-12-11 12:53:00
8:53 AM,23.0,17.1,78,30.24,10.0,SSW,8.1,-,N/A,,Clear,200,2013-12-11 13:53:00
9:53 AM,26.1,18.0,71,30.25,10.0,SSW,8.1,-,N/A,,Clear,210,2013-12-11 14:53:00
10:53 AM,27.0,19.0,72,30.22,10.0,SSW,10.4,-,N/A,,Clear,210,2013-12-11 15:53:00
11:53 AM,28.0,19.0,69,30.20,10.0,SSW,17.3,-,N/A,,Clear,210,2013-12-11 16:53:00
12:53 PM,28.0,19.0,69,30.19,10.0,SW,13.8,-,N/A,,Mostly Cloudy,220,2013-12-11 17:53:00
1:53 PM,28.0,18.0,66,30.18,10.0,SSW,8.1,-,N/A,,Clear,210,2013-12-11 18:53:00
2:53 PM,28.0,19.0,69,30.18,10.0,SW,10.4,-,N/A,,Clear,220,2013-12-11 19:53:00
3:53 PM,26.1,19.0,75,30.18,10.0,South,10.4,-,N/A,,Mostly Cloudy,190,2013-12-11 20:53:00
4:53 PM,27.0,19.0,72,30.18,10.0,SW,10.4,-,N/A,,Overcast,220,2013-12-11 21:53:00
5:53 PM,26.1,19.0,75,30.18,10.0,SSW,10.4,-,N/A,,Mostly Cloudy,200,2013-12-11 22:53:00
6:53 PM,24.1,17.1,75,30.17,10.0,South,8.1,-,N/A,,Mostly Cloudy,190,2013-12-11 23:53:00
7:53 PM,23.0,17.1,78,30.18,10.0,South,8.1,-,N/A,,Mostly Cloudy,190,2013-12-12 00:53:00
8:53 PM,21.9,16.0,78,30.17,10.0,South,8.1,-,N/A,,Clear,190,2013-12-12 01:53:00
9:53 PM,23.0,15.1,72,30.18,10.0,SSW,6.9,-,N/A,,Partly Cloudy,210,2013-12-12 02:53:00
10:53 PM,25.0,18.0,75,30.20,5.0,NNW,6.9,-,0.00,Snow,Light Snow,330,2013-12-12 03:53:00
11:00 PM,24.1,18.0,77,30.17,4.0,Calm,Calm,-,0.00,Snow,Light Snow,0,2013-12-12 04:00:00
11:21 PM,24.1,19.0,81,30.17,7.0,SW,6.9,-,0.00,Snow,Light Snow,220,2013-12-12 04:21:00
11:53 PM,23.0,18.0,81,30.19,10.0,SW,4.6,-,0.00,,Overcast,220,2013-12-12 04:53:00